sensor_id;sensor_type;location;lat;lon;timestamp;P1;durP1;ratioP1;P2;durP2;ratioP2
21546;SDS011;41275;51.912;4.388;2024-02-21T00:00:46;8.45;;;1.50;;
21546;SDS011;41275;51.912;4.388;2024-02-21T00:06:07;8.10;;;1.40;;
21546;SDS011;41275;51.912;4.388;2024-02-21T00:11:28;6.88;;;1.45;;
21546;SDS011;41275;51.912;4.388;2024-02-21T00:16:49;9.65;;;1.50;;
21546;SDS011;41275;51.912;4.388;2024-02-21T00:22:11;6.22;;;1.27;;
21546;SDS011;41275;51.912;4.388;2024-02-21T00:27:32;9.23;;;1.50;;
21546;SDS011;41275;51.912;4.388;2024-02-21T00:32:53;8.77;;;1.45;;
21546;SDS011;41275;51.912;4.388;2024-02-21T00:38:14;7.97;;;1.73;;
21546;SDS011;41275;51.912;4.388;2024-02-21T00:43:36;7.22;;;1.35;;
21546;SDS011;41275;51.912;4.388;2024-02-21T00:48:57;12.52;;;1.70;;
21546;SDS011;41275;51.912;4.388;2024-02-21T00:54:18;11.07;;;1.70;;
21546;SDS011;41275;51.912;4.388;2024-02-21T00:59:40;11.10;;;1.80;;
21546;SDS011;41275;51.912;4.388;2024-02-21T01:05:02;8.93;;;1.85;;
21546;SDS011;41275;51.912;4.388;2024-02-21T01:10:23;10.90;;;1.80;;
21546;SDS011;41275;51.912;4.388;2024-02-21T01:15:45;9.32;;;1.80;;
21546;SDS011;41275;51.912;4.388;2024-02-21T01:21:06;8.10;;;1.67;;
21546;SDS011;41275;51.912;4.388;2024-02-21T01:26:28;8.82;;;1.40;;
21546;SDS011;41275;51.912;4.388;2024-02-21T01:31:49;8.35;;;1.58;;
21546;SDS011;41275;51.912;4.388;2024-02-21T01:37:10;5.47;;;1.70;;
21546;SDS011;41275;51.912;4.388;2024-02-21T01:42:31;7.72;;;1.55;;
21546;SDS011;41275;51.912;4.388;2024-02-21T01:47:53;11.02;;;1.58;;
21546;SDS011;41275;51.912;4.388;2024-02-21T01:53:18;6.27;;;1.73;;
21546;SDS011;41275;51.912;4.388;2024-02-21T01:58:42;10.02;;;2.10;;
21546;SDS011;41275;51.912;4.388;2024-02-21T02:04:04;6.85;;;1.88;;
21546;SDS011;41275;51.912;4.388;2024-02-21T02:09:27;8.90;;;2.03;;
21546;SDS011;41275;51.912;4.388;2024-02-21T02:14:57;9.93;;;2.00;;
21546;SDS011;41275;51.912;4.388;2024-02-21T02:20:21;6.00;;;1.60;;
21546;SDS011;41275;51.912;4.388;2024-02-21T02:25:43;9.93;;;2.20;;
21546;SDS011;41275;51.912;4.388;2024-02-21T02:31:05;6.70;;;1.67;;
21546;SDS011;41275;51.912;4.388;2024-02-21T02:36:26;5.93;;;1.40;;
21546;SDS011;41275;51.912;4.388;2024-02-21T02:41:47;7.63;;;1.92;;
21546;SDS011;41275;51.912;4.388;2024-02-21T02:47:09;8.83;;;1.90;;
21546;SDS011;41275;51.912;4.388;2024-02-21T02:52:30;8.63;;;1.80;;
21546;SDS011;41275;51.912;4.388;2024-02-21T02:57:51;9.18;;;2.38;;
21546;SDS011;41275;51.912;4.388;2024-02-21T03:03:12;7.43;;;1.92;;
21546;SDS011;41275;51.912;4.388;2024-02-21T03:08:34;6.90;;;1.87;;
21546;SDS011;41275;51.912;4.388;2024-02-21T03:13:55;6.35;;;1.83;;
21546;SDS011;41275;51.912;4.388;2024-02-21T03:19:17;4.35;;;1.77;;
21546;SDS011;41275;51.912;4.388;2024-02-21T03:24:38;6.18;;;1.70;;
21546;SDS011;41275;51.912;4.388;2024-02-21T03:30:00;6.00;;;2.00;;
21546;SDS011;41275;51.912;4.388;2024-02-21T03:35:21;7.37;;;2.00;;
21546;SDS011;41275;51.912;4.388;2024-02-21T03:40:42;7.72;;;2.33;;
21546;SDS011;41275;51.912;4.388;2024-02-21T03:46:03;7.95;;;2.35;;
21546;SDS011;41275;51.912;4.388;2024-02-21T03:51:25;6.15;;;2.22;;
21546;SDS011;41275;51.912;4.388;2024-02-21T03:56:46;8.47;;;2.70;;
21546;SDS011;41275;51.912;4.388;2024-02-21T04:02:10;9.48;;;2.90;;
21546;SDS011;41275;51.912;4.388;2024-02-21T04:07:31;5.85;;;3.08;;
21546;SDS011;41275;51.912;4.388;2024-02-21T04:12:52;5.80;;;2.40;;
21546;SDS011;41275;51.912;4.388;2024-02-21T04:18:13;6.10;;;2.60;;
21546;SDS011;41275;51.912;4.388;2024-02-21T04:23:35;5.57;;;2.50;;
21546;SDS011;41275;51.912;4.388;2024-02-21T04:28:57;6.63;;;2.60;;
21546;SDS011;41275;51.912;4.388;2024-02-21T04:34:18;11.70;;;3.10;;
21546;SDS011;41275;51.912;4.388;2024-02-21T04:39:39;7.22;;;2.30;;
21546;SDS011;41275;51.912;4.388;2024-02-21T04:45:01;7.05;;;2.40;;
21546;SDS011;41275;51.912;4.388;2024-02-21T04:50:22;5.57;;;2.72;;
21546;SDS011;41275;51.912;4.388;2024-02-21T04:55:43;12.95;;;2.75;;
21546;SDS011;41275;51.912;4.388;2024-02-21T05:01:05;8.98;;;2.70;;
21546;SDS011;41275;51.912;4.388;2024-02-21T05:06:26;7.63;;;2.70;;
21546;SDS011;41275;51.912;4.388;2024-02-21T05:11:47;7.40;;;3.45;;
21546;SDS011;41275;51.912;4.388;2024-02-21T05:17:09;8.30;;;3.40;;
21546;SDS011;41275;51.912;4.388;2024-02-21T05:22:30;8.75;;;3.65;;
21546;SDS011;41275;51.912;4.388;2024-02-21T05:27:51;9.90;;;3.92;;
21546;SDS011;41275;51.912;4.388;2024-02-21T05:33:16;6.63;;;3.83;;
21546;SDS011;41275;51.912;4.388;2024-02-21T05:38:42;7.82;;;3.80;;
21546;SDS011;41275;51.912;4.388;2024-02-21T05:44:03;10.23;;;4.03;;
21546;SDS011;41275;51.912;4.388;2024-02-21T05:49:25;12.30;;;4.30;;
21546;SDS011;41275;51.912;4.388;2024-02-21T05:54:46;10.57;;;3.90;;
21546;SDS011;41275;51.912;4.388;2024-02-21T06:00:07;8.98;;;3.97;;
21546;SDS011;41275;51.912;4.388;2024-02-21T06:05:29;8.48;;;3.80;;
21546;SDS011;41275;51.912;4.388;2024-02-21T06:10:50;9.43;;;3.83;;
21546;SDS011;41275;51.912;4.388;2024-02-21T06:16:15;13.07;;;4.28;;
21546;SDS011;41275;51.912;4.388;2024-02-21T06:21:36;8.65;;;3.60;;
21546;SDS011;41275;51.912;4.388;2024-02-21T06:26:57;9.80;;;3.97;;
21546;SDS011;41275;51.912;4.388;2024-02-21T06:32:19;11.57;;;4.07;;
21546;SDS011;41275;51.912;4.388;2024-02-21T06:37:40;10.57;;;3.55;;
21546;SDS011;41275;51.912;4.388;2024-02-21T06:43:01;12.35;;;4.03;;
21546;SDS011;41275;51.912;4.388;2024-02-21T06:48:23;7.78;;;3.67;;
21546;SDS011;41275;51.912;4.388;2024-02-21T06:53:44;9.40;;;4.18;;
21546;SDS011;41275;51.912;4.388;2024-02-21T06:59:05;13.53;;;4.33;;
21546;SDS011;41275;51.912;4.388;2024-02-21T07:04:26;8.85;;;4.15;;
21546;SDS011;41275;51.912;4.388;2024-02-21T07:09:50;9.30;;;4.32;;
21546;SDS011;41275;51.912;4.388;2024-02-21T07:15:12;11.98;;;4.38;;
21546;SDS011;41275;51.912;4.388;2024-02-21T07:20:33;14.23;;;4.57;;
21546;SDS011;41275;51.912;4.388;2024-02-21T07:25:54;13.43;;;4.47;;
21546;SDS011;41275;51.912;4.388;2024-02-21T07:31:16;10.38;;;4.53;;
21546;SDS011;41275;51.912;4.388;2024-02-21T07:36:37;17.13;;;5.47;;
21546;SDS011;41275;51.912;4.388;2024-02-21T07:41:59;10.40;;;5.13;;
21546;SDS011;41275;51.912;4.388;2024-02-21T07:47:21;12.23;;;4.90;;
21546;SDS011;41275;51.912;4.388;2024-02-21T07:52:42;15.17;;;5.63;;
21546;SDS011;41275;51.912;4.388;2024-02-21T07:58:04;15.02;;;5.70;;
21546;SDS011;41275;51.912;4.388;2024-02-21T08:03:25;15.27;;;5.70;;
21546;SDS011;41275;51.912;4.388;2024-02-21T08:08:46;16.40;;;5.22;;
21546;SDS011;41275;51.912;4.388;2024-02-21T08:14:08;13.53;;;4.87;;
21546;SDS011;41275;51.912;4.388;2024-02-21T08:19:29;12.55;;;5.25;;
21546;SDS011;41275;51.912;4.388;2024-02-21T08:24:51;11.37;;;4.50;;
21546;SDS011;41275;51.912;4.388;2024-02-21T08:30:12;13.93;;;5.10;;
21546;SDS011;41275;51.912;4.388;2024-02-21T08:35:33;14.27;;;5.50;;
21546;SDS011;41275;51.912;4.388;2024-02-21T08:40:55;12.50;;;5.18;;
21546;SDS011;41275;51.912;4.388;2024-02-21T08:46:16;13.98;;;5.43;;
21546;SDS011;41275;51.912;4.388;2024-02-21T08:51:37;12.15;;;4.75;;
21546;SDS011;41275;51.912;4.388;2024-02-21T08:56:58;14.20;;;5.63;;
21546;SDS011;41275;51.912;4.388;2024-02-21T09:02:19;11.37;;;5.27;;
21546;SDS011;41275;51.912;4.388;2024-02-21T09:07:41;11.00;;;5.05;;
21546;SDS011;41275;51.912;4.388;2024-02-21T09:13:02;11.65;;;5.07;;
21546;SDS011;41275;51.912;4.388;2024-02-21T09:18:24;12.35;;;5.22;;
21546;SDS011;41275;51.912;4.388;2024-02-21T09:23:45;14.37;;;4.83;;
21546;SDS011;41275;51.912;4.388;2024-02-21T09:29:07;10.90;;;4.43;;
21546;SDS011;41275;51.912;4.388;2024-02-21T09:34:29;9.47;;;4.67;;
21546;SDS011;41275;51.912;4.388;2024-02-21T09:39:50;12.40;;;4.47;;
21546;SDS011;41275;51.912;4.388;2024-02-21T09:45:19;9.05;;;4.15;;
21546;SDS011;41275;51.912;4.388;2024-02-21T09:50:43;9.57;;;4.15;;
21546;SDS011;41275;51.912;4.388;2024-02-21T09:56:06;10.13;;;4.27;;
21546;SDS011;41275;51.912;4.388;2024-02-21T10:01:29;7.97;;;4.00;;
21546;SDS011;41275;51.912;4.388;2024-02-21T10:06:50;9.23;;;4.30;;
21546;SDS011;41275;51.912;4.388;2024-02-21T10:12:12;8.50;;;4.00;;
21546;SDS011;41275;51.912;4.388;2024-02-21T10:17:33;7.53;;;3.50;;
21546;SDS011;41275;51.912;4.388;2024-02-21T10:23:01;6.43;;;3.40;;
21546;SDS011;41275;51.912;4.388;2024-02-21T10:28:24;7.43;;;3.58;;
21546;SDS011;41275;51.912;4.388;2024-02-21T10:33:53;6.22;;;3.40;;
21546;SDS011;41275;51.912;4.388;2024-02-21T10:39:17;6.90;;;3.05;;
21546;SDS011;41275;51.912;4.388;2024-02-21T10:44:39;7.23;;;3.47;;
21546;SDS011;41275;51.912;4.388;2024-02-21T10:50:04;9.27;;;3.90;;
21546;SDS011;41275;51.912;4.388;2024-02-21T10:55:37;9.00;;;4.05;;
21546;SDS011;41275;51.912;4.388;2024-02-21T11:01:02;8.40;;;4.28;;
21546;SDS011;41275;51.912;4.388;2024-02-21T11:06:25;10.82;;;4.20;;
21546;SDS011;41275;51.912;4.388;2024-02-21T11:11:49;11.90;;;4.70;;
21546;SDS011;41275;51.912;4.388;2024-02-21T11:17:20;10.00;;;4.70;;
21546;SDS011;41275;51.912;4.388;2024-02-21T11:22:47;9.27;;;4.53;;
21546;SDS011;41275;51.912;4.388;2024-02-21T11:28:10;9.00;;;4.70;;
21546;SDS011;41275;51.912;4.388;2024-02-21T11:33:32;8.82;;;4.30;;
21546;SDS011;41275;51.912;4.388;2024-02-21T11:38:54;8.50;;;4.07;;
21546;SDS011;41275;51.912;4.388;2024-02-21T11:44:15;8.23;;;4.13;;
21546;SDS011;41275;51.912;4.388;2024-02-21T11:49:44;8.10;;;3.80;;
21546;SDS011;41275;51.912;4.388;2024-02-21T11:55:10;9.07;;;3.50;;
21546;SDS011;41275;51.912;4.388;2024-02-21T12:00:32;7.45;;;3.88;;
21546;SDS011;41275;51.912;4.388;2024-02-21T12:05:53;8.20;;;3.80;;
21546;SDS011;41275;51.912;4.388;2024-02-21T12:11:20;7.85;;;3.83;;
21546;SDS011;41275;51.912;4.388;2024-02-21T12:16:44;8.60;;;3.87;;
21546;SDS011;41275;51.912;4.388;2024-02-21T12:22:08;8.52;;;4.00;;
21546;SDS011;41275;51.912;4.388;2024-02-21T12:27:29;9.02;;;3.80;;
21546;SDS011;41275;51.912;4.388;2024-02-21T12:32:50;10.03;;;3.50;;
21546;SDS011;41275;51.912;4.388;2024-02-21T12:38:12;6.63;;;3.55;;
21546;SDS011;41275;51.912;4.388;2024-02-21T12:43:34;7.68;;;3.67;;
21546;SDS011;41275;51.912;4.388;2024-02-21T12:48:55;7.18;;;3.92;;
21546;SDS011;41275;51.912;4.388;2024-02-21T12:54:17;9.48;;;4.13;;
21546;SDS011;41275;51.912;4.388;2024-02-21T12:59:39;8.90;;;3.97;;
21546;SDS011;41275;51.912;4.388;2024-02-21T13:05:00;7.40;;;3.88;;
21546;SDS011;41275;51.912;4.388;2024-02-21T13:10:23;8.15;;;3.45;;
21546;SDS011;41275;51.912;4.388;2024-02-21T13:15:44;7.57;;;4.05;;
21546;SDS011;41275;51.912;4.388;2024-02-21T13:21:05;9.00;;;3.83;;
21546;SDS011;41275;51.912;4.388;2024-02-21T13:26:27;9.35;;;4.30;;
21546;SDS011;41275;51.912;4.388;2024-02-21T13:31:48;7.50;;;3.60;;
21546;SDS011;41275;51.912;4.388;2024-02-21T13:37:10;6.78;;;3.30;;
21546;SDS011;41275;51.912;4.388;2024-02-21T13:42:31;7.63;;;3.53;;
21546;SDS011;41275;51.912;4.388;2024-02-21T13:47:53;7.72;;;3.45;;
21546;SDS011;41275;51.912;4.388;2024-02-21T13:53:14;7.43;;;3.17;;
21546;SDS011;41275;51.912;4.388;2024-02-21T13:58:35;7.32;;;3.35;;
21546;SDS011;41275;51.912;4.388;2024-02-21T14:03:56;7.50;;;2.77;;
21546;SDS011;41275;51.912;4.388;2024-02-21T14:09:18;6.68;;;2.90;;
21546;SDS011;41275;51.912;4.388;2024-02-21T14:14:40;7.87;;;3.03;;
21546;SDS011;41275;51.912;4.388;2024-02-21T14:20:02;5.43;;;3.00;;
21546;SDS011;41275;51.912;4.388;2024-02-21T14:25:25;7.78;;;3.22;;
21546;SDS011;41275;51.912;4.388;2024-02-21T14:30:47;7.32;;;2.75;;
21546;SDS011;41275;51.912;4.388;2024-02-21T14:36:09;7.40;;;2.80;;
21546;SDS011;41275;51.912;4.388;2024-02-21T14:41:32;6.93;;;2.60;;
21546;SDS011;41275;51.912;4.388;2024-02-21T14:46:55;5.63;;;2.60;;
21546;SDS011;41275;51.912;4.388;2024-02-21T14:52:17;4.97;;;2.40;;
21546;SDS011;41275;51.912;4.388;2024-02-21T14:57:38;5.67;;;2.60;;
21546;SDS011;41275;51.912;4.388;2024-02-21T15:03:01;6.93;;;3.40;;
21546;SDS011;41275;51.912;4.388;2024-02-21T15:08:23;5.88;;;2.63;;
21546;SDS011;41275;51.912;4.388;2024-02-21T15:13:44;5.60;;;2.97;;
21546;SDS011;41275;51.912;4.388;2024-02-21T15:19:06;9.13;;;3.15;;
21546;SDS011;41275;51.912;4.388;2024-02-21T15:24:28;9.95;;;2.80;;
21546;SDS011;41275;51.912;4.388;2024-02-21T15:29:49;5.73;;;2.77;;
21546;SDS011;41275;51.912;4.388;2024-02-21T15:35:10;6.97;;;2.67;;
21546;SDS011;41275;51.912;4.388;2024-02-21T15:40:32;5.20;;;2.88;;
21546;SDS011;41275;51.912;4.388;2024-02-21T15:45:56;5.45;;;2.70;;
21546;SDS011;41275;51.912;4.388;2024-02-21T15:51:17;6.65;;;2.85;;
21546;SDS011;41275;51.912;4.388;2024-02-21T15:56:38;5.80;;;2.63;;
21546;SDS011;41275;51.912;4.388;2024-02-21T16:02:00;6.47;;;2.63;;
21546;SDS011;41275;51.912;4.388;2024-02-21T16:07:21;5.40;;;2.55;;
21546;SDS011;41275;51.912;4.388;2024-02-21T16:12:43;5.95;;;2.20;;
21546;SDS011;41275;51.912;4.388;2024-02-21T16:18:05;3.75;;;1.85;;
21546;SDS011;41275;51.912;4.388;2024-02-21T16:23:26;5.93;;;2.20;;
21546;SDS011;41275;51.912;4.388;2024-02-21T16:28:48;4.65;;;2.05;;
21546;SDS011;41275;51.912;4.388;2024-02-21T16:34:09;5.77;;;2.40;;
21546;SDS011;41275;51.912;4.388;2024-02-21T16:39:30;4.75;;;2.30;;
21546;SDS011;41275;51.912;4.388;2024-02-21T16:44:51;7.32;;;2.28;;
21546;SDS011;41275;51.912;4.388;2024-02-21T16:50:13;4.53;;;2.03;;
21546;SDS011;41275;51.912;4.388;2024-02-21T16:55:34;5.23;;;2.37;;
21546;SDS011;41275;51.912;4.388;2024-02-21T17:00:55;5.68;;;1.90;;
21546;SDS011;41275;51.912;4.388;2024-02-21T17:06:17;6.03;;;2.73;;
21546;SDS011;41275;51.912;4.388;2024-02-21T17:11:38;4.53;;;2.22;;
21546;SDS011;41275;51.912;4.388;2024-02-21T17:17:00;8.80;;;2.10;;
21546;SDS011;41275;51.912;4.388;2024-02-21T17:22:21;4.73;;;2.03;;
21546;SDS011;41275;51.912;4.388;2024-02-21T17:27:42;6.72;;;2.47;;
21546;SDS011;41275;51.912;4.388;2024-02-21T17:33:04;4.60;;;2.17;;
21546;SDS011;41275;51.912;4.388;2024-02-21T17:38:29;3.55;;;2.20;;
21546;SDS011;41275;51.912;4.388;2024-02-21T17:43:51;14.00;;;6.53;;
21546;SDS011;41275;51.912;4.388;2024-02-21T17:49:12;7.67;;;3.53;;
21546;SDS011;41275;51.912;4.388;2024-02-21T17:54:37;6.95;;;2.95;;
21546;SDS011;41275;51.912;4.388;2024-02-21T18:00:00;4.82;;;2.50;;
21546;SDS011;41275;51.912;4.388;2024-02-21T18:05:23;5.60;;;2.80;;
21546;SDS011;41275;51.912;4.388;2024-02-21T18:10:44;4.78;;;2.47;;
21546;SDS011;41275;51.912;4.388;2024-02-21T18:16:05;5.30;;;2.40;;
21546;SDS011;41275;51.912;4.388;2024-02-21T18:21:29;4.70;;;2.63;;
21546;SDS011;41275;51.912;4.388;2024-02-21T18:26:50;4.33;;;2.40;;
21546;SDS011;41275;51.912;4.388;2024-02-21T18:32:11;4.43;;;2.70;;
21546;SDS011;41275;51.912;4.388;2024-02-21T18:37:32;4.97;;;2.45;;
21546;SDS011;41275;51.912;4.388;2024-02-21T18:42:54;6.05;;;3.15;;
21546;SDS011;41275;51.912;4.388;2024-02-21T18:48:18;6.75;;;2.60;;
21546;SDS011;41275;51.912;4.388;2024-02-21T18:53:40;4.53;;;2.63;;
21546;SDS011;41275;51.912;4.388;2024-02-21T18:59:01;4.55;;;2.65;;
21546;SDS011;41275;51.912;4.388;2024-02-21T19:04:24;7.43;;;2.73;;
21546;SDS011;41275;51.912;4.388;2024-02-21T19:09:45;4.45;;;2.30;;
21546;SDS011;41275;51.912;4.388;2024-02-21T19:15:07;4.35;;;2.70;;
21546;SDS011;41275;51.912;4.388;2024-02-21T19:20:28;5.20;;;2.57;;
21546;SDS011;41275;51.912;4.388;2024-02-21T19:25:50;4.05;;;2.60;;
21546;SDS011;41275;51.912;4.388;2024-02-21T19:31:11;5.75;;;3.00;;
21546;SDS011;41275;51.912;4.388;2024-02-21T19:36:32;4.68;;;2.72;;
21546;SDS011;41275;51.912;4.388;2024-02-21T19:41:54;7.22;;;3.15;;
21546;SDS011;41275;51.912;4.388;2024-02-21T19:47:15;4.65;;;3.25;;
21546;SDS011;41275;51.912;4.388;2024-02-21T19:52:36;5.13;;;2.83;;
21546;SDS011;41275;51.912;4.388;2024-02-21T19:57:58;5.60;;;3.40;;
21546;SDS011;41275;51.912;4.388;2024-02-21T20:03:19;6.03;;;2.87;;
21546;SDS011;41275;51.912;4.388;2024-02-21T20:08:40;5.45;;;3.03;;
21546;SDS011;41275;51.912;4.388;2024-02-21T20:14:02;5.43;;;3.10;;
21546;SDS011;41275;51.912;4.388;2024-02-21T20:19:23;4.70;;;3.03;;
21546;SDS011;41275;51.912;4.388;2024-02-21T20:24:44;5.00;;;2.83;;
21546;SDS011;41275;51.912;4.388;2024-02-21T20:30:05;4.32;;;3.00;;
21546;SDS011;41275;51.912;4.388;2024-02-21T20:35:28;5.17;;;3.07;;
21546;SDS011;41275;51.912;4.388;2024-02-21T20:40:50;4.40;;;2.80;;
21546;SDS011;41275;51.912;4.388;2024-02-21T20:46:12;4.07;;;2.60;;
21546;SDS011;41275;51.912;4.388;2024-02-21T20:51:33;3.83;;;2.60;;
21546;SDS011;41275;51.912;4.388;2024-02-21T20:56:54;5.05;;;2.85;;
21546;SDS011;41275;51.912;4.388;2024-02-21T21:02:16;3.72;;;2.35;;
21546;SDS011;41275;51.912;4.388;2024-02-21T21:07:37;3.70;;;2.27;;
21546;SDS011;41275;51.912;4.388;2024-02-21T21:13:14;4.77;;;2.43;;
21546;SDS011;41275;51.912;4.388;2024-02-21T21:18:35;4.03;;;2.20;;
21546;SDS011;41275;51.912;4.388;2024-02-21T21:23:57;3.42;;;2.05;;
21546;SDS011;41275;51.912;4.388;2024-02-21T21:29:18;3.42;;;2.00;;
21546;SDS011;41275;51.912;4.388;2024-02-21T21:34:40;3.70;;;2.17;;
21546;SDS011;41275;51.912;4.388;2024-02-21T21:40:01;2.67;;;1.97;;
21546;SDS011;41275;51.912;4.388;2024-02-21T21:45:22;3.95;;;2.00;;
21546;SDS011;41275;51.912;4.388;2024-02-21T21:50:44;2.95;;;1.85;;
21546;SDS011;41275;51.912;4.388;2024-02-21T21:56:05;3.75;;;2.00;;
21546;SDS011;41275;51.912;4.388;2024-02-21T22:01:26;3.83;;;1.98;;
21546;SDS011;41275;51.912;4.388;2024-02-21T22:06:49;3.42;;;2.30;;
21546;SDS011;41275;51.912;4.388;2024-02-21T22:12:10;3.20;;;2.20;;
21546;SDS011;41275;51.912;4.388;2024-02-21T22:17:31;2.70;;;1.90;;
21546;SDS011;41275;51.912;4.388;2024-02-21T22:22:53;2.83;;;1.90;;
21546;SDS011;41275;51.912;4.388;2024-02-21T22:28:14;2.80;;;2.10;;
21546;SDS011;41275;51.912;4.388;2024-02-21T22:33:35;2.95;;;2.17;;
21546;SDS011;41275;51.912;4.388;2024-02-21T22:38:57;3.95;;;2.30;;
21546;SDS011;41275;51.912;4.388;2024-02-21T22:44:18;3.93;;;2.50;;
21546;SDS011;41275;51.912;4.388;2024-02-21T22:49:39;3.47;;;2.10;;
21546;SDS011;41275;51.912;4.388;2024-02-21T22:55:01;3.50;;;2.00;;
21546;SDS011;41275;51.912;4.388;2024-02-21T23:00:22;1.85;;;1.40;;
21546;SDS011;41275;51.912;4.388;2024-02-21T23:05:43;1.77;;;1.15;;
21546;SDS011;41275;51.912;4.388;2024-02-21T23:11:07;2.42;;;1.42;;
21546;SDS011;41275;51.912;4.388;2024-02-21T23:16:29;3.13;;;1.77;;
21546;SDS011;41275;51.912;4.388;2024-02-21T23:21:50;3.33;;;1.50;;
21546;SDS011;41275;51.912;4.388;2024-02-21T23:27:12;3.03;;;1.30;;
21546;SDS011;41275;51.912;4.388;2024-02-21T23:32:33;5.20;;;1.90;;
21546;SDS011;41275;51.912;4.388;2024-02-21T23:37:56;2.33;;;1.50;;
21546;SDS011;41275;51.912;4.388;2024-02-21T23:43:17;4.07;;;1.40;;
21546;SDS011;41275;51.912;4.388;2024-02-21T23:48:38;6.70;;;1.50;;
21546;SDS011;41275;51.912;4.388;2024-02-21T23:54:00;10.77;;;1.70;;
21546;SDS011;41275;51.912;4.388;2024-02-21T23:59:21;6.25;;;1.90;;
